CFG6CA EDDL-LGKR
Flight info
| Callsign | CFG6CA |
|---|---|
| Flight time | 2h 15m |
| Altitude | 35000 |
| Route | DODEN1T DODEN Y853 BOMBI DCT DETEV DCT DINKU/N0458F330 M867 XERUM DCT BAVAX DCT RADIZ/N0455F350 DCT ALIVO DCT UNIPA DCT VAKSU DCT RODON DCT LIMJA N732 PITAS |
| Aircraft | A320/M-SDE3FGHIRWY/LB1 |
Departure
| Time | 2026-05-07 08:53 |
|---|---|
| Airport | Düsseldorf Airport (EDDL) |
Arrival
| Time | 2026-05-07 11:08 |
|---|---|
| Airport | Corfu Ioannis Kapodistrias International Airport (LGKR) |
| Time | Latitude | Longitude | Altitude | Speed | Heading |
|---|---|---|---|---|---|
| 2026-05-07 08:15 | 51.28053 | 6.76287 | 129 ft | 0 kts | 185° |
| 2026-05-07 08:41 | 51.28065 | 6.76289 | 124 ft | 3 kts | 184° |
| 2026-05-07 08:41 | 51.28085 | 6.76291 | 125 ft | 3 kts | 181° |
| 2026-05-07 08:41 | 51.28105 | 6.76291 | 124 ft | 3 kts | 175° |
| 2026-05-07 08:42 | 51.28125 | 6.76287 | 125 ft | 3 kts | 164° |
| 2026-05-07 08:42 | 51.28143 | 6.76275 | 125 ft | 3 kts | 135° |
| 2026-05-07 08:42 | 51.28151 | 6.76256 | 124 ft | 1 kts | 95° |
| 2026-05-07 08:42 | 51.28151 | 6.76250 | 125 ft | 1 kts | 95° |
| 2026-05-07 08:45 | 51.28168 | 6.76292 | 126 ft | 13 kts | 56° |
| 2026-05-07 08:45 | 51.28220 | 6.76402 | 126 ft | 11 kts | 52° |
| 2026-05-07 08:45 | 51.28265 | 6.76494 | 124 ft | 10 kts | 52° |
| 2026-05-07 08:46 | 51.28305 | 6.76577 | 121 ft | 10 kts | 53° |
| 2026-05-07 08:46 | 51.28341 | 6.76654 | 126 ft | 7 kts | 53° |
| 2026-05-07 08:46 | 51.28383 | 6.76698 | 125 ft | 11 kts | 4° |
| 2026-05-07 08:46 | 51.28459 | 6.76712 | 122 ft | 12 kts | 54° |
| 2026-05-07 08:47 | 51.28501 | 6.76802 | 123 ft | 9 kts | 53° |
| 2026-05-07 08:47 | 51.28534 | 6.76871 | 126 ft | 10 kts | 52° |
| 2026-05-07 08:47 | 51.28601 | 6.77011 | 125 ft | 17 kts | 53° |
| 2026-05-07 08:47 | 51.28668 | 6.77151 | 129 ft | 15 kts | 52° |
| 2026-05-07 08:48 | 51.28726 | 6.77273 | 127 ft | 13 kts | 53° |
| 2026-05-07 08:48 | 51.28776 | 6.77379 | 125 ft | 11 kts | 53° |
| 2026-05-07 08:48 | 51.28819 | 6.77469 | 128 ft | 9 kts | 52° |
| 2026-05-07 08:48 | 51.28864 | 6.77563 | 127 ft | 11 kts | 52° |
| 2026-05-07 08:49 | 51.28907 | 6.77652 | 127 ft | 11 kts | 52° |
| 2026-05-07 08:49 | 51.28970 | 6.77785 | 128 ft | 16 kts | 52° |
| 2026-05-07 08:49 | 51.29032 | 6.77915 | 130 ft | 14 kts | 53° |
| 2026-05-07 08:49 | 51.29085 | 6.78026 | 131 ft | 11 kts | 52° |
| 2026-05-07 08:50 | 51.29123 | 6.78106 | 133 ft | 8 kts | 52° |
| 2026-05-07 08:50 | 51.29171 | 6.78206 | 136 ft | 13 kts | 53° |
| 2026-05-07 08:50 | 51.29214 | 6.78297 | 140 ft | 7 kts | 52° |
| 2026-05-07 08:50 | 51.29234 | 6.78338 | 142 ft | 2 kts | 52° |
| 2026-05-07 08:51 | 51.29237 | 6.78345 | 142 ft | 4 kts | 52° |
| 2026-05-07 08:51 | 51.29292 | 6.78461 | 147 ft | 14 kts | 53° |
| 2026-05-07 08:51 | 51.29345 | 6.78554 | 151 ft | 8 kts | 33° |
| 2026-05-07 08:51 | 51.29410 | 6.78572 | 152 ft | 13 kts | 356° |
| 2026-05-07 08:52 | 51.29506 | 6.78552 | 152 ft | 14 kts | 329° |
| 2026-05-07 08:52 | 51.29511 | 6.78453 | 150 ft | 16 kts | 242° |
| 2026-05-07 08:52 | 51.29408 | 6.78234 | 144 ft | 47 kts | 232° |
| 2026-05-07 08:52 | 51.28887 | 6.77142 | 126 ft | 133 kts | 233° |
| 2026-05-07 08:53 | 51.28239 | 6.75782 | 294 ft | 164 kts | 235° |
| 2026-05-07 08:53 | 51.27765 | 6.74790 | 667 ft | 170 kts | 234° |
| 2026-05-07 08:53 | 51.27040 | 6.73253 | 1258 ft | 177 kts | 235° |
| 2026-05-07 08:53 | 51.26300 | 6.71652 | 1911 ft | 179 kts | 236° |
| 2026-05-07 08:54 | 51.25550 | 6.70020 | 2422 ft | 186 kts | 236° |
| 2026-05-07 08:54 | 51.24766 | 6.68301 | 2864 ft | 196 kts | 236° |
| 2026-05-07 08:54 | 51.23936 | 6.66498 | 3293 ft | 208 kts | 235° |
| 2026-05-07 08:54 | 51.22953 | 6.64631 | 3544 ft | 234 kts | 219° |
| 2026-05-07 08:55 | 51.21399 | 6.63569 | 3903 ft | 258 kts | 185° |
| 2026-05-07 08:55 | 51.19577 | 6.63730 | 4558 ft | 271 kts | 173° |
| 2026-05-07 08:55 | 51.17686 | 6.64059 | 5426 ft | 275 kts | 173° |
| 2026-05-07 08:55 | 51.15809 | 6.64682 | 6270 ft | 278 kts | 155° |
| 2026-05-07 08:56 | 51.14446 | 6.66112 | 6796 ft | 276 kts | 134° |
| 2026-05-07 08:56 | 51.13528 | 6.68140 | 7551 ft | 274 kts | 114° |
| 2026-05-07 08:56 | 51.13088 | 6.71094 | 8477 ft | 279 kts | 88° |
| 2026-05-07 08:56 | 51.13203 | 6.74208 | 9228 ft | 283 kts | 84° |
| 2026-05-07 08:57 | 51.13324 | 6.77000 | 9924 ft | 287 kts | 85° |
| 2026-05-07 08:57 | 51.13457 | 6.80225 | 10416 ft | 301 kts | 85° |
| 2026-05-07 08:57 | 51.13596 | 6.83694 | 10613 ft | 325 kts | 85° |
| 2026-05-07 08:57 | 51.13738 | 6.87397 | 10781 ft | 348 kts | 85° |
| 2026-05-07 08:58 | 51.13883 | 6.91346 | 11088 ft | 363 kts | 85° |
| 2026-05-07 08:58 | 51.14029 | 6.95415 | 11644 ft | 370 kts | 85° |
| 2026-05-07 08:58 | 51.14173 | 6.99528 | 12260 ft | 374 kts | 86° |
| 2026-05-07 08:58 | 51.14319 | 7.03686 | 12889 ft | 379 kts | 86° |
| 2026-05-07 08:59 | 51.14469 | 7.07904 | 13496 ft | 383 kts | 86° |
| 2026-05-07 08:59 | 51.14621 | 7.12164 | 14092 ft | 387 kts | 86° |
| 2026-05-07 08:59 | 51.14772 | 7.16459 | 14668 ft | 390 kts | 86° |
| 2026-05-07 08:59 | 51.14921 | 7.20799 | 15236 ft | 394 kts | 86° |
| 2026-05-07 09:00 | 51.15067 | 7.25161 | 15844 ft | 396 kts | 86° |
| 2026-05-07 09:00 | 51.15208 | 7.29555 | 16411 ft | 399 kts | 86° |
| 2026-05-07 09:00 | 51.15352 | 7.33989 | 16980 ft | 402 kts | 85° |
| 2026-05-07 09:00 | 51.15272 | 7.38468 | 17556 ft | 406 kts | 97° |
| 2026-05-07 09:01 | 51.14606 | 7.42830 | 18091 ft | 411 kts | 109° |
| 2026-05-07 09:01 | 51.13385 | 7.46960 | 18623 ft | 414 kts | 121° |
| 2026-05-07 09:01 | 51.11704 | 7.50620 | 19090 ft | 416 kts | 132° |
| 2026-05-07 09:01 | 51.09636 | 7.53878 | 19555 ft | 419 kts | 136° |
| 2026-05-07 09:02 | 51.07525 | 7.57102 | 20058 ft | 421 kts | 136° |
| 2026-05-07 09:02 | 51.05400 | 7.60353 | 20471 ft | 425 kts | 136° |
| 2026-05-07 09:02 | 51.03266 | 7.63609 | 20934 ft | 426 kts | 135° |
| 2026-05-07 09:02 | 51.01113 | 7.66889 | 21354 ft | 430 kts | 135° |
| 2026-05-07 09:03 | 50.98946 | 7.70185 | 21739 ft | 433 kts | 135° |
| 2026-05-07 09:03 | 50.96700 | 7.73388 | 22140 ft | 436 kts | 142° |
| 2026-05-07 09:03 | 50.94186 | 7.76079 | 22586 ft | 437 kts | 148° |
| 2026-05-07 09:03 | 50.91587 | 7.78630 | 22931 ft | 440 kts | 148° |
| 2026-05-07 09:04 | 50.88978 | 7.81202 | 23301 ft | 443 kts | 148° |
| 2026-05-07 09:04 | 50.86396 | 7.83759 | 23659 ft | 444 kts | 148° |
| 2026-05-07 09:04 | 50.83737 | 7.86383 | 24042 ft | 445 kts | 148° |
| 2026-05-07 09:04 | 50.81137 | 7.88933 | 24353 ft | 446 kts | 148° |
| 2026-05-07 09:05 | 50.78491 | 7.91522 | 24672 ft | 448 kts | 148° |
| 2026-05-07 09:05 | 50.75833 | 7.94124 | 24966 ft | 450 kts | 148° |
| 2026-05-07 09:05 | 50.73160 | 7.96737 | 25198 ft | 454 kts | 148° |
| 2026-05-07 09:05 | 50.70471 | 7.99357 | 25533 ft | 454 kts | 148° |
| 2026-05-07 09:06 | 50.67782 | 8.01973 | 25847 ft | 455 kts | 148° |
| 2026-05-07 09:06 | 50.65088 | 8.04592 | 26142 ft | 456 kts | 148° |
| 2026-05-07 09:06 | 50.62381 | 8.07225 | 26368 ft | 459 kts | 148° |
| 2026-05-07 09:06 | 50.59709 | 8.10035 | 26594 ft | 461 kts | 142° |
| 2026-05-07 09:07 | 50.57237 | 8.13251 | 26837 ft | 463 kts | 140° |
| 2026-05-07 09:07 | 50.54760 | 8.16515 | 27117 ft | 463 kts | 140° |
| 2026-05-07 09:07 | 50.52283 | 8.19767 | 27371 ft | 464 kts | 140° |
| 2026-05-07 09:07 | 50.49831 | 8.22979 | 27592 ft | 465 kts | 140° |
| 2026-05-07 09:08 | 50.47334 | 8.26239 | 27800 ft | 466 kts | 140° |
| 2026-05-07 09:08 | 50.44838 | 8.29488 | 28077 ft | 467 kts | 140° |
| 2026-05-07 09:08 | 50.42339 | 8.32738 | 28375 ft | 466 kts | 140° |
| 2026-05-07 09:08 | 50.39856 | 8.35969 | 28739 ft | 464 kts | 140° |
| 2026-05-07 09:09 | 50.37371 | 8.39203 | 29060 ft | 463 kts | 140° |
| 2026-05-07 09:09 | 50.34894 | 8.42423 | 29388 ft | 462 kts | 140° |
| 2026-05-07 09:09 | 50.32440 | 8.45609 | 29648 ft | 462 kts | 140° |
| 2026-05-07 09:09 | 50.29956 | 8.48830 | 29905 ft | 463 kts | 140° |
| 2026-05-07 09:10 | 50.27475 | 8.52034 | 30235 ft | 461 kts | 140° |
| 2026-05-07 09:10 | 50.25007 | 8.55213 | 30507 ft | 460 kts | 140° |
| 2026-05-07 09:10 | 50.22526 | 8.58402 | 30714 ft | 461 kts | 140° |
| 2026-05-07 09:10 | 50.20048 | 8.61586 | 30971 ft | 461 kts | 141° |
| 2026-05-07 09:11 | 50.17568 | 8.64771 | 31247 ft | 459 kts | 141° |
| 2026-05-07 09:11 | 50.15131 | 8.67898 | 31523 ft | 458 kts | 141° |
| 2026-05-07 09:11 | 50.12674 | 8.71045 | 31789 ft | 457 kts | 141° |
| 2026-05-07 09:11 | 50.10211 | 8.74196 | 32022 ft | 458 kts | 141° |
| 2026-05-07 09:12 | 50.07781 | 8.77496 | 32230 ft | 459 kts | 135° |
| 2026-05-07 09:12 | 50.05716 | 8.81202 | 32493 ft | 459 kts | 126° |
| 2026-05-07 09:12 | 50.04009 | 8.85392 | 32717 ft | 459 kts | 117° |
| 2026-05-07 09:12 | 50.02616 | 8.89866 | 32962 ft | 459 kts | 116° |
| 2026-05-07 09:13 | 50.01237 | 8.94338 | 33222 ft | 458 kts | 116° |
| 2026-05-07 09:13 | 49.99847 | 8.98806 | 33465 ft | 458 kts | 116° |
| 2026-05-07 09:13 | 49.98451 | 9.03257 | 33716 ft | 458 kts | 116° |
| 2026-05-07 09:13 | 49.97051 | 9.07710 | 33973 ft | 458 kts | 117° |
| 2026-05-07 09:14 | 49.95656 | 9.12152 | 34186 ft | 458 kts | 117° |
| 2026-05-07 09:14 | 49.94261 | 9.16603 | 34389 ft | 457 kts | 117° |
| 2026-05-07 09:14 | 49.92867 | 9.21043 | 34595 ft | 457 kts | 117° |
| 2026-05-07 09:14 | 49.91470 | 9.25473 | 34782 ft | 457 kts | 117° |
| 2026-05-07 09:15 | 49.90068 | 9.29905 | 34956 ft | 458 kts | 117° |
| 2026-05-07 09:15 | 49.88660 | 9.34352 | 34997 ft | 460 kts | 117° |
| 2026-05-07 09:15 | 49.85847 | 9.43226 | 35000 ft | 462 kts | 117° |
| 2026-05-07 09:16 | 49.82891 | 9.52070 | 34999 ft | 461 kts | 124° |
| 2026-05-07 09:16 | 49.78716 | 9.59509 | 35000 ft | 458 kts | 139° |
| 2026-05-07 09:17 | 49.74056 | 9.66244 | 34997 ft | 458 kts | 138° |
| 2026-05-07 09:17 | 49.69400 | 9.72980 | 34996 ft | 458 kts | 138° |
| 2026-05-07 09:18 | 49.64770 | 9.79677 | 34998 ft | 458 kts | 138° |
| 2026-05-07 09:18 | 49.60111 | 9.86392 | 35002 ft | 459 kts | 139° |
| 2026-05-07 09:19 | 49.55439 | 9.93095 | 34999 ft | 458 kts | 139° |
| 2026-05-07 09:19 | 49.50761 | 9.99786 | 34995 ft | 459 kts | 139° |
| 2026-05-07 09:20 | 49.46089 | 10.06463 | 34994 ft | 459 kts | 139° |
| 2026-05-07 09:20 | 49.41406 | 10.13134 | 35001 ft | 459 kts | 139° |
| 2026-05-07 09:21 | 49.36717 | 10.19782 | 35006 ft | 459 kts | 139° |
| 2026-05-07 09:21 | 49.32025 | 10.26433 | 35009 ft | 459 kts | 139° |
| 2026-05-07 09:22 | 49.27340 | 10.33060 | 35011 ft | 458 kts | 140° |
| 2026-05-07 09:22 | 49.22473 | 10.39329 | 35020 ft | 455 kts | 150° |
| 2026-05-07 09:23 | 49.17052 | 10.44288 | 35042 ft | 454 kts | 151° |
| 2026-05-07 09:23 | 49.11663 | 10.49194 | 35037 ft | 454 kts | 151° |
| 2026-05-07 09:24 | 49.06232 | 10.54132 | 35049 ft | 454 kts | 151° |
| 2026-05-07 09:24 | 49.00801 | 10.59047 | 35031 ft | 454 kts | 152° |
| 2026-05-07 09:25 | 48.95372 | 10.63950 | 35041 ft | 453 kts | 152° |
| 2026-05-07 09:25 | 48.89952 | 10.68835 | 35048 ft | 453 kts | 152° |
| 2026-05-07 09:26 | 48.84523 | 10.73709 | 35043 ft | 453 kts | 152° |
| 2026-05-07 09:26 | 48.79500 | 10.79498 | 35033 ft | 458 kts | 136° |
| 2026-05-07 09:27 | 48.75224 | 10.86679 | 35022 ft | 459 kts | 135° |
| 2026-05-07 09:28 | 48.68835 | 10.97398 | 35002 ft | 458 kts | 135° |
| 2026-05-07 09:28 | 48.64550 | 11.04541 | 35005 ft | 458 kts | 135° |
| 2026-05-07 09:29 | 48.60268 | 11.11671 | 35004 ft | 458 kts | 135° |
| 2026-05-07 09:29 | 48.55974 | 11.18788 | 35008 ft | 458 kts | 135° |
| 2026-05-07 09:30 | 48.51669 | 11.25892 | 35008 ft | 458 kts | 136° |
| 2026-05-07 09:30 | 48.47376 | 11.32986 | 35004 ft | 458 kts | 136° |
| 2026-05-07 09:31 | 48.43110 | 11.40025 | 35026 ft | 457 kts | 136° |
| 2026-05-07 09:31 | 48.38786 | 11.47124 | 35031 ft | 457 kts | 136° |
| 2026-05-07 09:32 | 48.34516 | 11.54127 | 35032 ft | 457 kts | 136° |
| 2026-05-07 09:32 | 48.30209 | 11.61156 | 35036 ft | 457 kts | 136° |
| 2026-05-07 09:33 | 48.25888 | 11.68144 | 35030 ft | 455 kts | 139° |
| 2026-05-07 09:33 | 48.21344 | 11.74702 | 35038 ft | 452 kts | 142° |
| 2026-05-07 09:34 | 48.16640 | 11.80934 | 35038 ft | 451 kts | 143° |
| 2026-05-07 09:34 | 48.11956 | 11.87185 | 35034 ft | 451 kts | 142° |
| 2026-05-07 09:35 | 48.07317 | 11.93516 | 35024 ft | 451 kts | 142° |
| 2026-05-07 09:35 | 48.02694 | 11.99861 | 35002 ft | 451 kts | 142° |
| 2026-05-07 09:36 | 47.98078 | 12.06172 | 35018 ft | 449 kts | 143° |
| 2026-05-07 09:36 | 47.94240 | 12.11391 | 35029 ft | 449 kts | 143° |
| 2026-05-07 09:37 | 47.88864 | 12.18649 | 35033 ft | 448 kts | 143° |
| 2026-05-07 09:37 | 47.84985 | 12.23882 | 35032 ft | 448 kts | 143° |
| 2026-05-07 09:38 | 47.80371 | 12.30102 | 35039 ft | 448 kts | 143° |
| 2026-05-07 09:38 | 47.75781 | 12.36268 | 35029 ft | 448 kts | 143° |
| 2026-05-07 09:39 | 47.71153 | 12.42476 | 35031 ft | 448 kts | 143° |
| 2026-05-07 09:39 | 47.66517 | 12.48670 | 35032 ft | 448 kts | 143° |
| 2026-05-07 09:40 | 47.61832 | 12.54742 | 35032 ft | 444 kts | 148° |
| 2026-05-07 09:40 | 47.56868 | 12.60199 | 35032 ft | 444 kts | 149° |
| 2026-05-07 09:41 | 47.51893 | 12.65634 | 35007 ft | 444 kts | 149° |
| 2026-05-07 09:41 | 47.46965 | 12.71011 | 35032 ft | 443 kts | 149° |
| 2026-05-07 09:42 | 47.42002 | 12.76418 | 35028 ft | 442 kts | 149° |
| 2026-05-07 09:42 | 47.37048 | 12.81803 | 35039 ft | 442 kts | 149° |
| 2026-05-07 09:43 | 47.32091 | 12.87180 | 35008 ft | 442 kts | 149° |
| 2026-05-07 09:43 | 47.27138 | 12.92539 | 35009 ft | 441 kts | 149° |
| 2026-05-07 09:44 | 47.22184 | 12.97877 | 34992 ft | 440 kts | 150° |
| 2026-05-07 09:44 | 47.17245 | 13.03196 | 35005 ft | 439 kts | 150° |
| 2026-05-07 09:45 | 47.12319 | 13.08494 | 34999 ft | 439 kts | 150° |
| 2026-05-07 09:45 | 47.07436 | 13.13734 | 34996 ft | 438 kts | 150° |
| 2026-05-07 09:46 | 47.02508 | 13.18999 | 34980 ft | 438 kts | 150° |
| 2026-05-07 09:46 | 46.97570 | 13.24248 | 34958 ft | 438 kts | 150° |
| 2026-05-07 09:47 | 46.92646 | 13.29485 | 34976 ft | 437 kts | 150° |
| 2026-05-07 09:47 | 46.87723 | 13.34725 | 34989 ft | 437 kts | 150° |
| 2026-05-07 09:48 | 46.82810 | 13.39934 | 34989 ft | 436 kts | 150° |
| 2026-05-07 09:48 | 46.77902 | 13.45115 | 34974 ft | 435 kts | 150° |
| 2026-05-07 09:49 | 46.72986 | 13.50297 | 34982 ft | 436 kts | 150° |
| 2026-05-07 09:49 | 46.68073 | 13.55464 | 34954 ft | 435 kts | 151° |
| 2026-05-07 09:50 | 46.63156 | 13.60632 | 34974 ft | 435 kts | 151° |
| 2026-05-07 09:50 | 46.58702 | 13.65297 | 34344 ft | 435 kts | 147° |
| 2026-05-07 09:50 | 46.56238 | 13.67875 | 34516 ft | 437 kts | 144° |
| 2026-05-07 09:51 | 46.53780 | 13.70447 | 34702 ft | 438 kts | 144° |
| 2026-05-07 09:51 | 46.51304 | 13.73031 | 34900 ft | 439 kts | 144° |
| 2026-05-07 09:51 | 46.48976 | 13.75451 | 35683 ft | 439 kts | 151° |
| 2026-05-07 09:51 | 46.46531 | 13.77992 | 35896 ft | 438 kts | 151° |
| 2026-05-07 09:52 | 46.44059 | 13.80561 | 36056 ft | 437 kts | 151° |
| 2026-05-07 09:52 | 46.41581 | 13.83134 | 36256 ft | 437 kts | 151° |
| 2026-05-07 09:52 | 46.39121 | 13.85687 | 36487 ft | 435 kts | 151° |
| 2026-05-07 09:52 | 46.36663 | 13.88234 | 36737 ft | 433 kts | 151° |
| 2026-05-07 09:53 | 46.34206 | 13.90778 | 36959 ft | 434 kts | 150° |
| 2026-05-07 09:53 | 46.29245 | 13.95901 | 36999 ft | 441 kts | 150° |
| 2026-05-07 09:54 | 46.24255 | 14.01041 | 37002 ft | 444 kts | 150° |
| 2026-05-07 09:54 | 46.19225 | 14.06213 | 36998 ft | 444 kts | 150° |
| 2026-05-07 09:55 | 46.14202 | 14.11375 | 37002 ft | 443 kts | 150° |
| 2026-05-07 09:55 | 46.09176 | 14.16528 | 37002 ft | 443 kts | 150° |
| 2026-05-07 09:56 | 46.04133 | 14.21670 | 36989 ft | 444 kts | 151° |
| 2026-05-07 09:56 | 45.99074 | 14.26821 | 36996 ft | 445 kts | 151° |
| 2026-05-07 09:57 | 45.94018 | 14.31963 | 37004 ft | 446 kts | 151° |
| 2026-05-07 09:57 | 45.88953 | 14.37106 | 37001 ft | 445 kts | 151° |
| 2026-05-07 09:58 | 45.83906 | 14.42215 | 37019 ft | 444 kts | 151° |
| 2026-05-07 09:58 | 45.78852 | 14.47311 | 37025 ft | 444 kts | 151° |
| 2026-05-07 09:59 | 45.73835 | 14.52374 | 37027 ft | 443 kts | 151° |
| 2026-05-07 09:59 | 45.68782 | 14.57459 | 37034 ft | 444 kts | 151° |
| 2026-05-07 10:00 | 45.63730 | 14.62524 | 37004 ft | 443 kts | 151° |
| 2026-05-07 10:00 | 45.58704 | 14.67554 | 37008 ft | 443 kts | 152° |
| 2026-05-07 10:01 | 45.53652 | 14.72595 | 37021 ft | 443 kts | 152° |
| 2026-05-07 10:01 | 45.48817 | 14.78149 | 37035 ft | 448 kts | 146° |
| 2026-05-07 10:02 | 45.44056 | 14.83892 | 37036 ft | 448 kts | 146° |
| 2026-05-07 10:02 | 45.39303 | 14.89617 | 37020 ft | 448 kts | 146° |
| 2026-05-07 10:03 | 45.34531 | 14.95348 | 37025 ft | 449 kts | 146° |
| 2026-05-07 10:03 | 45.29751 | 15.01066 | 37035 ft | 449 kts | 147° |
| 2026-05-07 10:04 | 45.24959 | 15.06782 | 37039 ft | 449 kts | 147° |
| 2026-05-07 10:04 | 45.20173 | 15.12487 | 37044 ft | 450 kts | 147° |
| 2026-05-07 10:05 | 45.15413 | 15.18150 | 37044 ft | 450 kts | 147° |
| 2026-05-07 10:05 | 45.10613 | 15.23840 | 37044 ft | 450 kts | 147° |
| 2026-05-07 10:06 | 45.05815 | 15.29526 | 37045 ft | 450 kts | 147° |
| 2026-05-07 10:06 | 45.01016 | 15.35186 | 37052 ft | 450 kts | 147° |
| 2026-05-07 10:07 | 44.96207 | 15.40850 | 37064 ft | 449 kts | 147° |
| 2026-05-07 10:07 | 44.91399 | 15.46499 | 37044 ft | 450 kts | 147° |
| 2026-05-07 10:08 | 44.86585 | 15.52149 | 37050 ft | 450 kts | 147° |
| 2026-05-07 10:08 | 44.81791 | 15.57762 | 37052 ft | 451 kts | 147° |
| 2026-05-07 10:09 | 44.76939 | 15.63437 | 37062 ft | 451 kts | 147° |
| 2026-05-07 10:09 | 44.72132 | 15.69034 | 37069 ft | 451 kts | 147° |
| 2026-05-07 10:10 | 44.67296 | 15.74655 | 37048 ft | 451 kts | 147° |
| 2026-05-07 10:10 | 44.62448 | 15.80269 | 37055 ft | 452 kts | 147° |
| 2026-05-07 10:11 | 44.57592 | 15.85886 | 37069 ft | 452 kts | 147° |
| 2026-05-07 10:11 | 44.52734 | 15.91498 | 37073 ft | 452 kts | 147° |
| 2026-05-07 10:12 | 44.47872 | 15.97104 | 37050 ft | 453 kts | 146° |
| 2026-05-07 10:12 | 44.43003 | 16.02700 | 37059 ft | 452 kts | 146° |
| 2026-05-07 10:13 | 44.38136 | 16.08275 | 37072 ft | 452 kts | 146° |
| 2026-05-07 10:13 | 44.33301 | 16.13808 | 37078 ft | 452 kts | 146° |
| 2026-05-07 10:14 | 44.28425 | 16.19373 | 37089 ft | 452 kts | 146° |
| 2026-05-07 10:14 | 44.23559 | 16.24913 | 37084 ft | 451 kts | 146° |
| 2026-05-07 10:15 | 44.18696 | 16.30442 | 37069 ft | 451 kts | 146° |
| 2026-05-07 10:15 | 44.13834 | 16.35970 | 37076 ft | 451 kts | 146° |
| 2026-05-07 10:16 | 44.08962 | 16.41485 | 37094 ft | 451 kts | 146° |
| 2026-05-07 10:16 | 44.04118 | 16.46947 | 37091 ft | 451 kts | 146° |
| 2026-05-07 10:17 | 43.99191 | 16.52361 | 37088 ft | 450 kts | 147° |
| 2026-05-07 10:17 | 43.94197 | 16.57587 | 37096 ft | 449 kts | 148° |
| 2026-05-07 10:18 | 43.89198 | 16.62777 | 37103 ft | 449 kts | 148° |
| 2026-05-07 10:18 | 43.84204 | 16.67991 | 37106 ft | 449 kts | 148° |
| 2026-05-07 10:19 | 43.79258 | 16.73190 | 37091 ft | 449 kts | 147° |
| 2026-05-07 10:19 | 43.74281 | 16.78419 | 37103 ft | 449 kts | 147° |
| 2026-05-07 10:20 | 43.69297 | 16.83622 | 37114 ft | 449 kts | 147° |
| 2026-05-07 10:20 | 43.64314 | 16.88806 | 37115 ft | 448 kts | 147° |
| 2026-05-07 10:21 | 43.59338 | 16.93987 | 37127 ft | 448 kts | 147° |
| 2026-05-07 10:21 | 43.54359 | 16.99154 | 37127 ft | 448 kts | 147° |
| 2026-05-07 10:22 | 43.49396 | 17.04286 | 37130 ft | 448 kts | 147° |
| 2026-05-07 10:22 | 43.44407 | 17.09433 | 37122 ft | 448 kts | 147° |
| 2026-05-07 10:23 | 43.39418 | 17.14572 | 37125 ft | 447 kts | 147° |
| 2026-05-07 10:23 | 43.35279 | 17.18835 | 37130 ft | 447 kts | 147° |
| 2026-05-07 10:24 | 43.30296 | 17.23954 | 37133 ft | 447 kts | 147° |
| 2026-05-07 10:24 | 43.25299 | 17.29074 | 37116 ft | 448 kts | 147° |
| 2026-05-07 10:25 | 43.20302 | 17.34186 | 37119 ft | 448 kts | 147° |
| 2026-05-07 10:25 | 43.15297 | 17.39295 | 37123 ft | 449 kts | 147° |
| 2026-05-07 10:26 | 43.10291 | 17.44392 | 37119 ft | 448 kts | 148° |
| 2026-05-07 10:26 | 43.05318 | 17.49436 | 37113 ft | 448 kts | 148° |
| 2026-05-07 10:27 | 43.00303 | 17.54516 | 37118 ft | 448 kts | 148° |
| 2026-05-07 10:27 | 42.95290 | 17.59582 | 37119 ft | 448 kts | 148° |
| 2026-05-07 10:28 | 42.90268 | 17.64652 | 37114 ft | 448 kts | 148° |
| 2026-05-07 10:28 | 42.85257 | 17.69705 | 37118 ft | 448 kts | 148° |
| 2026-05-07 10:29 | 42.80278 | 17.74718 | 37087 ft | 448 kts | 148° |
| 2026-05-07 10:29 | 42.75263 | 17.79766 | 37114 ft | 448 kts | 148° |
| 2026-05-07 10:30 | 42.67728 | 17.87301 | 37119 ft | 448 kts | 148° |
| 2026-05-07 10:30 | 42.62696 | 17.92321 | 37124 ft | 448 kts | 148° |
| 2026-05-07 10:31 | 42.57684 | 17.97318 | 37109 ft | 448 kts | 148° |
| 2026-05-07 10:31 | 42.52649 | 18.02319 | 37115 ft | 448 kts | 148° |
| 2026-05-07 10:32 | 42.47642 | 18.07292 | 37122 ft | 449 kts | 148° |
| 2026-05-07 10:32 | 42.42592 | 18.12296 | 37127 ft | 449 kts | 148° |
| 2026-05-07 10:33 | 42.37545 | 18.17282 | 37124 ft | 449 kts | 148° |
| 2026-05-07 10:33 | 42.32495 | 18.22261 | 37114 ft | 449 kts | 148° |
| 2026-05-07 10:34 | 42.27464 | 18.27206 | 37119 ft | 450 kts | 148° |
| 2026-05-07 10:34 | 42.22376 | 18.32214 | 37119 ft | 450 kts | 148° |
| 2026-05-07 10:35 | 42.17311 | 18.37183 | 37121 ft | 450 kts | 148° |
| 2026-05-07 10:35 | 42.12268 | 18.42117 | 37103 ft | 451 kts | 148° |
| 2026-05-07 10:36 | 42.07186 | 18.47071 | 37089 ft | 452 kts | 148° |
| 2026-05-07 10:36 | 42.02089 | 18.52027 | 37098 ft | 453 kts | 148° |
| 2026-05-07 10:37 | 41.97032 | 18.57107 | 37108 ft | 455 kts | 146° |
| 2026-05-07 10:37 | 41.92045 | 18.62364 | 37120 ft | 456 kts | 146° |
| 2026-05-07 10:38 | 41.87063 | 18.67622 | 37105 ft | 456 kts | 146° |
| 2026-05-07 10:38 | 41.82064 | 18.72826 | 37107 ft | 457 kts | 147° |
| 2026-05-07 10:39 | 41.79505 | 18.75465 | 36952 ft | 458 kts | 147° |
| 2026-05-07 10:39 | 41.76979 | 18.78061 | 36679 ft | 457 kts | 147° |
| 2026-05-07 10:39 | 41.74468 | 18.80641 | 36419 ft | 454 kts | 147° |
| 2026-05-07 10:39 | 41.71967 | 18.83214 | 36170 ft | 452 kts | 147° |
| 2026-05-07 10:40 | 41.69476 | 18.85774 | 35910 ft | 451 kts | 147° |
| 2026-05-07 10:40 | 41.66992 | 18.88323 | 35658 ft | 450 kts | 147° |
| 2026-05-07 10:40 | 41.64543 | 18.90837 | 35402 ft | 449 kts | 147° |
| 2026-05-07 10:40 | 41.62063 | 18.93385 | 35156 ft | 450 kts | 147° |
| 2026-05-07 10:41 | 41.59580 | 18.95939 | 34911 ft | 450 kts | 147° |
| 2026-05-07 10:41 | 41.57097 | 18.98489 | 34670 ft | 449 kts | 147° |
| 2026-05-07 10:41 | 41.54616 | 19.01033 | 34434 ft | 449 kts | 147° |
| 2026-05-07 10:41 | 41.52144 | 19.03562 | 34196 ft | 448 kts | 147° |
| 2026-05-07 10:42 | 41.49675 | 19.06084 | 33931 ft | 447 kts | 147° |
| 2026-05-07 10:42 | 41.47176 | 19.08554 | 33659 ft | 445 kts | 151° |
| 2026-05-07 10:42 | 41.44494 | 19.10560 | 33383 ft | 441 kts | 159° |
| 2026-05-07 10:42 | 41.41654 | 19.12043 | 33107 ft | 439 kts | 163° |
| 2026-05-07 10:43 | 41.38781 | 19.13436 | 32826 ft | 440 kts | 164° |
| 2026-05-07 10:43 | 41.35896 | 19.14839 | 32564 ft | 442 kts | 163° |
| 2026-05-07 10:43 | 41.33004 | 19.16251 | 32300 ft | 443 kts | 163° |
| 2026-05-07 10:43 | 41.30105 | 19.17670 | 32044 ft | 444 kts | 163° |
| 2026-05-07 10:44 | 41.27196 | 19.19092 | 31790 ft | 445 kts | 163° |
| 2026-05-07 10:44 | 41.24288 | 19.20511 | 31536 ft | 446 kts | 163° |
| 2026-05-07 10:44 | 41.21407 | 19.21916 | 31286 ft | 447 kts | 163° |
| 2026-05-07 10:44 | 41.18449 | 19.23359 | 31034 ft | 448 kts | 163° |
| 2026-05-07 10:45 | 41.15559 | 19.24769 | 30792 ft | 449 kts | 163° |
| 2026-05-07 10:45 | 41.12629 | 19.26192 | 30540 ft | 449 kts | 163° |
| 2026-05-07 10:45 | 41.09685 | 19.27617 | 30293 ft | 450 kts | 163° |
| 2026-05-07 10:45 | 41.06733 | 19.29043 | 30051 ft | 451 kts | 163° |
| 2026-05-07 10:46 | 41.03780 | 19.30470 | 29770 ft | 452 kts | 163° |
| 2026-05-07 10:46 | 41.00821 | 19.31898 | 29480 ft | 453 kts | 163° |
| 2026-05-07 10:46 | 40.97857 | 19.33327 | 29203 ft | 454 kts | 163° |
| 2026-05-07 10:46 | 40.94887 | 19.34759 | 28919 ft | 455 kts | 163° |
| 2026-05-07 10:47 | 40.91915 | 19.36192 | 28644 ft | 455 kts | 163° |
| 2026-05-07 10:47 | 40.88931 | 19.37630 | 28367 ft | 456 kts | 163° |
| 2026-05-07 10:47 | 40.85940 | 19.39072 | 28108 ft | 457 kts | 163° |
| 2026-05-07 10:47 | 40.82947 | 19.40510 | 27840 ft | 458 kts | 163° |
| 2026-05-07 10:48 | 40.79949 | 19.41948 | 27586 ft | 459 kts | 163° |
| 2026-05-07 10:48 | 40.76945 | 19.43387 | 27327 ft | 460 kts | 163° |
| 2026-05-07 10:48 | 40.73968 | 19.44811 | 27076 ft | 460 kts | 163° |
| 2026-05-07 10:48 | 40.70953 | 19.46253 | 26795 ft | 463 kts | 163° |
| 2026-05-07 10:49 | 40.67927 | 19.47701 | 26544 ft | 463 kts | 163° |
| 2026-05-07 10:49 | 40.64892 | 19.49156 | 26294 ft | 464 kts | 163° |
| 2026-05-07 10:49 | 40.61863 | 19.50605 | 26047 ft | 464 kts | 163° |
| 2026-05-07 10:49 | 40.58821 | 19.52052 | 25804 ft | 465 kts | 163° |
| 2026-05-07 10:50 | 40.55780 | 19.53494 | 25561 ft | 465 kts | 163° |
| 2026-05-07 10:50 | 40.52742 | 19.54937 | 25326 ft | 464 kts | 163° |
| 2026-05-07 10:50 | 40.49708 | 19.56380 | 25078 ft | 462 kts | 163° |
| 2026-05-07 10:50 | 40.46686 | 19.57820 | 24838 ft | 461 kts | 163° |
| 2026-05-07 10:51 | 40.43684 | 19.59248 | 24606 ft | 460 kts | 163° |
| 2026-05-07 10:51 | 40.40674 | 19.60674 | 24372 ft | 458 kts | 164° |
| 2026-05-07 10:51 | 40.37717 | 19.62068 | 24148 ft | 457 kts | 164° |
| 2026-05-07 10:51 | 40.34687 | 19.63496 | 23913 ft | 456 kts | 164° |
| 2026-05-07 10:52 | 40.31706 | 19.64899 | 23688 ft | 455 kts | 164° |
| 2026-05-07 10:52 | 40.28773 | 19.66280 | 23424 ft | 453 kts | 164° |
| 2026-05-07 10:52 | 40.25809 | 19.67677 | 23134 ft | 452 kts | 164° |
| 2026-05-07 10:52 | 40.22828 | 19.69084 | 22867 ft | 450 kts | 164° |
| 2026-05-07 10:53 | 40.19925 | 19.70456 | 22594 ft | 448 kts | 164° |
| 2026-05-07 10:53 | 40.16995 | 19.71836 | 22325 ft | 447 kts | 164° |
| 2026-05-07 10:53 | 40.14059 | 19.73051 | 21630 ft | 440 kts | 172° |
| 2026-05-07 10:53 | 40.11023 | 19.73322 | 20454 ft | 436 kts | 188° |
| 2026-05-07 10:54 | 40.08117 | 19.72512 | 19490 ft | 415 kts | 203° |
| 2026-05-07 10:54 | 40.05479 | 19.71264 | 18877 ft | 398 kts | 203° |
| 2026-05-07 10:54 | 40.02874 | 19.70058 | 18225 ft | 396 kts | 203° |
| 2026-05-07 10:54 | 40.00274 | 19.68873 | 17575 ft | 395 kts | 203° |
| 2026-05-07 10:55 | 39.97690 | 19.67707 | 16998 ft | 392 kts | 202° |
| 2026-05-07 10:55 | 39.95084 | 19.66628 | 16479 ft | 392 kts | 201° |
| 2026-05-07 10:55 | 39.92485 | 19.65571 | 15917 ft | 389 kts | 201° |
| 2026-05-07 10:55 | 39.89915 | 19.64526 | 15315 ft | 386 kts | 201° |
| 2026-05-07 10:56 | 39.87362 | 19.63488 | 14809 ft | 382 kts | 201° |
| 2026-05-07 10:56 | 39.84843 | 19.62461 | 14317 ft | 372 kts | 201° |
| 2026-05-07 10:56 | 39.82447 | 19.61486 | 13835 ft | 350 kts | 201° |
| 2026-05-07 10:56 | 39.80178 | 19.60568 | 13237 ft | 333 kts | 201° |
| 2026-05-07 10:57 | 39.78047 | 19.59735 | 12646 ft | 319 kts | 196° |
| 2026-05-07 10:57 | 39.75861 | 19.59477 | 12107 ft | 311 kts | 186° |
| 2026-05-07 10:57 | 39.73727 | 19.59441 | 11554 ft | 300 kts | 185° |
| 2026-05-07 10:57 | 39.71682 | 19.59412 | 11130 ft | 288 kts | 185° |
| 2026-05-07 10:58 | 39.69711 | 19.59381 | 10722 ft | 280 kts | 185° |
| 2026-05-07 10:58 | 39.68169 | 19.59350 | 10400 ft | 278 kts | 185° |
| 2026-05-07 10:58 | 39.66233 | 19.59317 | 9999 ft | 279 kts | 181° |
| 2026-05-07 10:58 | 39.64336 | 19.59920 | 9545 ft | 286 kts | 159° |
| 2026-05-07 10:59 | 39.62559 | 19.61110 | 9116 ft | 288 kts | 155° |
| 2026-05-07 10:59 | 39.60796 | 19.62359 | 8685 ft | 288 kts | 155° |
| 2026-05-07 10:59 | 39.59086 | 19.63573 | 8400 ft | 271 kts | 155° |
| 2026-05-07 10:59 | 39.57487 | 19.64713 | 8148 ft | 254 kts | 155° |
| 2026-05-07 11:00 | 39.55978 | 19.65792 | 7900 ft | 243 kts | 154° |
| 2026-05-07 11:00 | 39.54659 | 19.67174 | 7568 ft | 250 kts | 130° |
| 2026-05-07 11:00 | 39.53801 | 19.69128 | 7179 ft | 253 kts | 121° |
| 2026-05-07 11:00 | 39.52982 | 19.71161 | 6668 ft | 254 kts | 121° |
| 2026-05-07 11:01 | 39.52178 | 19.73173 | 6184 ft | 249 kts | 121° |
| 2026-05-07 11:01 | 39.51393 | 19.75142 | 5711 ft | 243 kts | 120° |
| 2026-05-07 11:01 | 39.50635 | 19.77044 | 5262 ft | 238 kts | 120° |
| 2026-05-07 11:01 | 39.49872 | 19.78943 | 4757 ft | 236 kts | 119° |
| 2026-05-07 11:02 | 39.49121 | 19.80806 | 4297 ft | 231 kts | 118° |
| 2026-05-07 11:02 | 39.48392 | 19.82614 | 4015 ft | 218 kts | 118° |
| 2026-05-07 11:02 | 39.47724 | 19.84277 | 3965 ft | 197 kts | 118° |
| 2026-05-07 11:02 | 39.47104 | 19.85814 | 3912 ft | 192 kts | 118° |
| 2026-05-07 11:03 | 39.46489 | 19.87337 | 3799 ft | 188 kts | 118° |
| 2026-05-07 11:03 | 39.45903 | 19.88787 | 3710 ft | 177 kts | 118° |
| 2026-05-07 11:03 | 39.45335 | 19.90191 | 3632 ft | 175 kts | 118° |
| 2026-05-07 11:03 | 39.44774 | 19.91578 | 3534 ft | 174 kts | 118° |
| 2026-05-07 11:04 | 39.44349 | 19.93028 | 3459 ft | 174 kts | 97° |
| 2026-05-07 11:04 | 39.44543 | 19.94558 | 3377 ft | 176 kts | 66° |
| 2026-05-07 11:04 | 39.45344 | 19.95726 | 3221 ft | 179 kts | 34° |
| 2026-05-07 11:04 | 39.46530 | 19.96147 | 2865 ft | 178 kts | 360° |
| 2026-05-07 11:05 | 39.47701 | 19.95797 | 2563 ft | 168 kts | 346° |
| 2026-05-07 11:05 | 39.48807 | 19.95376 | 2266 ft | 163 kts | 346° |
| 2026-05-07 11:05 | 39.49847 | 19.94868 | 2075 ft | 157 kts | 334° |
| 2026-05-07 11:05 | 39.50771 | 19.94164 | 1890 ft | 154 kts | 332° |
| 2026-05-07 11:06 | 39.51696 | 19.93473 | 1722 ft | 152 kts | 335° |
| 2026-05-07 11:06 | 39.52687 | 19.93012 | 1503 ft | 151 kts | 350° |
| 2026-05-07 11:06 | 39.53713 | 19.92744 | 1248 ft | 152 kts | 351° |
| 2026-05-07 11:06 | 39.54749 | 19.92515 | 925 ft | 149 kts | 354° |
| 2026-05-07 11:07 | 39.55778 | 19.92316 | 684 ft | 149 kts | 351° |
| 2026-05-07 11:07 | 39.56794 | 19.92066 | 553 ft | 148 kts | 349° |
| 2026-05-07 11:07 | 39.57802 | 19.91814 | 350 ft | 145 kts | 351° |
| 2026-05-07 11:07 | 39.58793 | 19.91569 | 161 ft | 145 kts | 351° |
| 2026-05-07 11:08 | 39.59762 | 19.91326 | 27 ft | 133 kts | 349° |
| 2026-05-07 11:08 | 39.60513 | 19.91132 | 20 ft | 85 kts | 348° |
| 2026-05-07 11:08 | 39.60906 | 19.91028 | 19 ft | 31 kts | 348° |
| 2026-05-07 11:08 | 39.61034 | 19.91051 | 19 ft | 10 kts | 50° |
| 2026-05-07 11:09 | 39.61049 | 19.91113 | 19 ft | 5 kts | 141° |
| 2026-05-07 11:09 | 39.61018 | 19.91133 | 19 ft | 4 kts | 165° |
| 2026-05-07 11:09 | 39.60992 | 19.91140 | 20 ft | 3 kts | 168° |
| 2026-05-07 11:09 | 39.60929 | 19.91157 | 19 ft | 15 kts | 168° |
| 2026-05-07 11:10 | 39.60828 | 19.91184 | 19 ft | 12 kts | 168° |
| 2026-05-07 11:10 | 39.60772 | 19.91199 | 19 ft | 6 kts | 169° |
| 2026-05-07 11:10 | 39.60744 | 19.91221 | 18 ft | 4 kts | 116° |
| 2026-05-07 11:10 | 39.60749 | 19.91260 | 18 ft | 6 kts | 73° |
| 2026-05-07 11:11 | 39.60756 | 19.91298 | 20 ft | 6 kts | 83° |
| 2026-05-07 11:11 | 39.60761 | 19.91333 | 18 ft | 0 kts | 79° |